createdAt,value
2022-12-29T00:01:56.568Z,65.27
2022-12-29T00:04:23.170Z,64.91
2022-12-29T00:06:49.642Z,63.03
2022-12-29T00:09:17.418Z,64.13
2022-12-29T00:11:44.094Z,63.62
2022-12-29T00:14:30.286Z,64.71
2022-12-29T00:16:57.337Z,65.14
2022-12-29T00:19:42.899Z,64.92
2022-12-29T00:22:32.768Z,63.00
2022-12-29T00:25:02.871Z,63.62
2022-12-29T00:27:49.360Z,63.47
2022-12-29T00:30:38.452Z,64.26
2022-12-29T00:33:30.502Z,64.38
2022-12-29T00:36:20.140Z,61.83
2022-12-29T00:39:15.260Z,64.40
2022-12-29T00:42:00.583Z,64.21
2022-12-29T00:44:27.024Z,64.69
2022-12-29T00:46:53.566Z,63.76
2022-12-29T00:49:31.912Z,64.03
2022-12-29T00:52:08.893Z,63.24
2022-12-29T00:54:37.585Z,65.86
2022-12-29T00:57:06.429Z,64.25
2022-12-29T00:59:36.224Z,65.47
2022-12-29T01:02:02.847Z,62.70
2022-12-29T01:04:29.370Z,61.48
2022-12-29T01:06:55.847Z,61.87
2022-12-29T01:09:41.226Z,63.50
2022-12-29T01:12:09.095Z,62.89
2022-12-29T01:14:35.737Z,62.74
2022-12-29T01:17:02.192Z,63.50
2022-12-29T01:19:28.637Z,62.36
2022-12-29T01:21:55.096Z,63.22
2022-12-29T01:24:22.431Z,64.02
2022-12-29T01:26:49.507Z,63.59
2022-12-29T01:29:16.350Z,64.69
2022-12-29T01:31:43.800Z,65.56
2022-12-29T01:34:10.318Z,65.23
2022-12-29T01:36:36.870Z,64.29
2022-12-29T01:39:03.440Z,65.57
2022-12-29T01:41:30.075Z,63.99
2022-12-29T01:44:01.997Z,64.77
2022-12-29T01:46:39.150Z,63.75
2022-12-29T01:49:22.888Z,64.78
2022-12-29T01:51:59.458Z,64.43
2022-12-29T01:54:41.216Z,65.88
2022-12-29T01:57:13.608Z,64.64
2022-12-29T01:59:46.869Z,66.74
2022-12-29T02:02:13.499Z,64.94
2022-12-29T02:04:46.758Z,65.59
2022-12-29T02:07:19.452Z,64.66
2022-12-29T02:09:50.203Z,65.36
2022-12-29T02:12:19.119Z,66.26
2022-12-29T02:14:46.356Z,66.67
2022-12-29T02:17:22.785Z,66.35
2022-12-29T02:20:04.509Z,68.25
2022-12-29T02:22:43.095Z,68.40
2022-12-29T02:25:38.043Z,67.75
2022-12-29T02:28:10.572Z,66.50
2022-12-29T02:30:55.760Z,68.73
2022-12-29T02:33:38.861Z,68.42
2022-12-29T02:36:20.963Z,69.11
2022-12-29T02:39:06.235Z,68.80
2022-12-29T02:41:59.388Z,69.23
2022-12-29T02:44:47.327Z,67.66
2022-12-29T02:47:29.088Z,68.61
2022-12-29T02:50:20.264Z,68.20
2022-12-29T02:52:58.201Z,69.13
2022-12-29T02:55:24.701Z,67.70
2022-12-29T02:58:17.968Z,69.51
2022-12-29T03:01:03.303Z,68.69
2022-12-29T03:03:40.411Z,67.33
2022-12-29T03:06:28.427Z,68.03
2022-12-29T03:09:18.873Z,68.09
2022-12-29T03:12:15.858Z,67.82
2022-12-29T03:15:25.232Z,67.78
2022-12-29T03:18:03.412Z,67.82
2022-12-29T03:20:39.750Z,68.05
2022-12-29T03:23:07.761Z,68.24
2022-12-29T03:25:41.166Z,67.43
2022-12-29T03:28:11.797Z,67.83
2022-12-29T03:30:40.694Z,66.91
2022-12-29T03:33:13.256Z,68.22
2022-12-29T03:35:44.565Z,67.95
2022-12-29T03:38:24.234Z,66.70
2022-12-29T03:40:57.747Z,67.03
2022-12-29T03:43:24.499Z,67.10
2022-12-29T03:45:51.045Z,66.50
2022-12-29T03:48:17.573Z,68.29
2022-12-29T03:50:44.719Z,67.27
2022-12-29T03:53:11.314Z,67.32
2022-12-29T03:55:37.755Z,68.25
2022-12-29T03:58:04.172Z,67.87
2022-12-29T04:00:30.602Z,69.12
2022-12-29T04:02:57.161Z,69.31
2022-12-29T04:05:23.787Z,69.46
2022-12-29T04:07:50.226Z,68.38
2022-12-29T04:10:16.708Z,68.05
2022-12-29T04:12:43.188Z,68.78
2022-12-29T04:15:10.643Z,67.52
2022-12-29T04:17:37.106Z,68.45
2022-12-29T04:20:22.530Z,66.59
2022-12-29T04:22:48.997Z,68.27
2022-12-29T04:25:15.517Z,67.83
2022-12-29T04:27:41.899Z,67.72
2022-12-29T04:30:09.132Z,69.09
2022-12-29T04:32:35.584Z,68.18
2022-12-29T04:35:02.004Z,67.87
2022-12-29T04:37:28.417Z,68.01
2022-12-29T04:39:54.841Z,68.58
2022-12-29T04:42:21.358Z,66.46
2022-12-29T04:44:47.834Z,66.22
2022-12-29T04:47:14.323Z,67.60
2022-12-29T04:49:40.806Z,67.28
2022-12-29T04:52:09.256Z,66.28
2022-12-29T04:54:35.794Z,65.97
2022-12-29T04:57:02.238Z,66.75
2022-12-29T04:59:28.716Z,65.76
2022-12-29T05:01:55.241Z,66.00
2022-12-29T05:04:21.720Z,65.02
2022-12-29T05:06:48.759Z,65.66
2022-12-29T05:09:15.194Z,64.37
2022-12-29T05:11:41.690Z,63.58
2022-12-29T05:14:08.119Z,65.15
2022-12-29T05:16:34.544Z,65.55
2022-12-29T05:19:01.052Z,63.96
2022-12-29T05:21:27.553Z,65.01
2022-12-29T05:23:54.643Z,63.63
2022-12-29T05:26:21.122Z,64.46
2022-12-29T05:28:47.537Z,64.29
2022-12-29T05:31:14.176Z,64.07
2022-12-29T05:33:40.661Z,63.70
2022-12-29T05:36:09.399Z,63.75
2022-12-29T05:38:35.954Z,63.65
2022-12-29T05:41:02.400Z,64.07
2022-12-29T05:43:28.868Z,65.13
2022-12-29T05:45:55.969Z,64.54
2022-12-29T05:48:22.461Z,65.00
2022-12-29T05:50:49.814Z,63.96
2022-12-29T05:53:16.341Z,64.34
2022-12-29T05:55:48.547Z,63.94
2022-12-29T05:58:16.279Z,63.76
2022-12-29T06:00:44.079Z,64.47
2022-12-29T06:03:10.640Z,63.72
2022-12-29T06:05:37.523Z,64.19
2022-12-29T06:08:04.272Z,65.10
2022-12-29T06:10:30.773Z,66.24
2022-12-29T06:12:57.228Z,66.64
2022-12-29T06:15:23.656Z,67.20
2022-12-29T06:17:50.058Z,65.98
2022-12-29T06:20:16.974Z,66.28
2022-12-29T06:22:43.945Z,66.84
2022-12-29T06:25:10.529Z,66.83
2022-12-29T06:27:36.961Z,66.46
2022-12-29T06:30:04.297Z,67.36
2022-12-29T06:32:30.797Z,67.95
2022-12-29T06:34:57.224Z,67.70
2022-12-29T06:37:23.653Z,68.32
2022-12-29T06:39:50.038Z,67.46
2022-12-29T06:42:16.561Z,67.62
2022-12-29T06:44:42.978Z,68.79
2022-12-29T06:47:09.422Z,67.75
2022-12-29T06:49:35.884Z,66.18
2022-12-29T06:52:09.051Z,67.83
2022-12-29T06:54:39.085Z,68.87
2022-12-29T06:57:05.510Z,67.87
2022-12-29T06:59:31.943Z,67.23
2022-12-29T07:01:58.514Z,67.56
2022-12-29T07:04:25.122Z,67.88
2022-12-29T07:06:51.612Z,67.29
2022-12-29T07:09:18.097Z,66.29
2022-12-29T07:11:44.553Z,68.82
2022-12-29T07:14:12.290Z,66.95
2022-12-29T07:16:39.326Z,66.79
2022-12-29T07:19:06.010Z,66.42
2022-12-29T07:21:32.522Z,66.74
2022-12-29T07:23:58.918Z,65.87
2022-12-29T07:26:25.359Z,67.04
2022-12-29T07:28:52.033Z,65.94
2022-12-29T07:31:21.712Z,66.32
2022-12-29T07:33:48.734Z,65.02
2022-12-29T07:36:15.970Z,65.38
2022-12-29T07:38:43.359Z,66.15
2022-12-29T07:41:10.085Z,65.36
2022-12-29T07:43:36.734Z,66.25
2022-12-29T07:46:03.281Z,64.19
2022-12-29T07:48:29.777Z,66.26
2022-12-29T07:50:56.243Z,65.43
2022-12-29T07:53:22.687Z,65.70
2022-12-29T07:55:49.124Z,64.48
2022-12-29T07:58:15.549Z,64.47
2022-12-29T08:00:41.961Z,64.06
2022-12-29T08:03:08.391Z,63.87
2022-12-29T08:05:35.414Z,65.01
2022-12-29T08:08:01.890Z,65.10
2022-12-29T08:10:28.462Z,64.83
2022-12-29T08:12:55.062Z,63.08
2022-12-29T08:15:24.414Z,62.80
2022-12-29T08:17:53.626Z,67.43
2022-12-29T08:20:20.036Z,67.82
2022-12-29T08:22:46.486Z,66.62
2022-12-29T08:25:12.954Z,66.34
2022-12-29T08:27:39.542Z,63.40
2022-12-29T08:30:06.629Z,67.14
2022-12-29T08:32:33.136Z,64.87
2022-12-29T08:34:59.545Z,65.77
2022-12-29T08:37:30.912Z,65.92
2022-12-29T08:39:58.734Z,66.34
2022-12-29T08:42:29.816Z,65.11
2022-12-29T08:44:56.236Z,66.51
2022-12-29T08:47:22.638Z,67.37
2022-12-29T08:49:49.090Z,64.89
2022-12-29T08:52:15.518Z,64.24
2022-12-29T08:54:41.931Z,63.08
2022-12-29T08:57:08.441Z,64.76
2022-12-29T08:59:36.008Z,65.68
2022-12-29T09:02:02.907Z,64.05
2022-12-29T09:04:29.605Z,64.34
2022-12-29T09:06:56.220Z,66.61
2022-12-29T09:09:22.729Z,65.32
2022-12-29T09:11:49.159Z,65.94
2022-12-29T09:14:15.626Z,67.40
2022-12-29T09:17:01.048Z,67.37
2022-12-29T09:19:27.534Z,66.23
2022-12-29T09:21:53.987Z,65.05
2022-12-29T09:24:20.388Z,66.67
2022-12-29T09:26:47.169Z,68.96
2022-12-29T09:29:13.733Z,69.27
2022-12-29T09:31:40.290Z,70.29
2022-12-29T09:34:06.811Z,69.16
2022-12-29T09:36:33.198Z,69.43
2022-12-29T09:38:59.631Z,70.69
2022-12-29T09:41:36.684Z,73.03
2022-12-29T09:44:11.854Z,70.98
2022-12-29T09:46:42.532Z,71.52
2022-12-29T09:49:42.030Z,68.85
2022-12-29T09:52:16.377Z,71.27
2022-12-29T09:55:02.965Z,71.67
2022-12-29T09:57:37.119Z,70.57
2022-12-29T10:00:12.317Z,71.53
2022-12-29T10:02:54.405Z,70.66
2022-12-29T10:05:30.127Z,68.70
2022-12-29T10:08:05.460Z,66.98
2022-12-29T10:11:13.232Z,69.02
2022-12-29T10:14:16.033Z,70.55
2022-12-29T10:16:54.941Z,69.12
2022-12-29T10:19:37.842Z,69.93
2022-12-29T10:22:16.306Z,65.58
2022-12-29T10:24:45.342Z,65.30
2022-12-29T10:27:14.635Z,64.57
2022-12-29T10:30:03.522Z,66.07
2022-12-29T10:32:44.112Z,63.31
2022-12-29T10:35:30.750Z,63.11
2022-12-29T10:38:19.502Z,62.48
2022-12-29T10:41:04.337Z,61.19
2022-12-29T10:43:36.569Z,62.61
2022-12-29T10:46:12.802Z,63.02
2022-12-29T10:48:39.749Z,61.19
2022-12-29T10:51:47.479Z,61.94
2022-12-29T10:54:19.197Z,61.36
2022-12-29T10:56:53.262Z,61.38
2022-12-29T10:59:25.567Z,61.43
2022-12-29T11:02:13.288Z,63.65
2022-12-29T11:05:03.053Z,62.62
2022-12-29T11:07:31.053Z,64.38
2022-12-29T11:10:20.959Z,63.19
2022-12-29T11:13:19.134Z,64.33
2022-12-29T11:15:49.002Z,62.88
2022-12-29T11:18:23.242Z,60.77
2022-12-29T11:21:01.626Z,59.20
2022-12-29T11:23:40.143Z,59.73
2022-12-29T11:26:21.078Z,58.84
2022-12-29T11:29:04.795Z,59.01
2022-12-29T11:31:31.265Z,60.26
2022-12-29T11:33:57.728Z,59.95
2022-12-29T11:36:25.495Z,59.48
2022-12-29T11:38:54.454Z,58.91
2022-12-29T11:41:24.716Z,57.23
2022-12-29T11:43:52.432Z,58.30
2022-12-29T11:46:34.630Z,59.05
2022-12-29T11:49:03.031Z,59.41
2022-12-29T11:51:35.542Z,60.46
2022-12-29T11:54:05.098Z,61.72
2022-12-29T11:56:43.284Z,64.74
2022-12-29T11:59:27.820Z,67.86
2022-12-29T12:01:55.495Z,69.69
2022-12-29T12:04:27.308Z,69.18
2022-12-29T12:07:09.586Z,69.09
2022-12-29T12:09:42.037Z,68.36
2022-12-29T12:12:15.068Z,66.75
2022-12-29T12:14:57.501Z,67.29
2022-12-29T12:17:52.601Z,68.04
2022-12-29T12:20:44.600Z,68.95
2022-12-29T12:23:47.984Z,65.35
2022-12-29T12:26:29.043Z,65.96
2022-12-29T12:29:02.105Z,64.64
2022-12-29T12:31:50.082Z,65.45
2022-12-29T12:34:28.950Z,63.19
2022-12-29T12:37:20.043Z,61.51
2022-12-29T12:40:23.950Z,61.18
2022-12-29T12:42:56.485Z,58.82
2022-12-29T12:45:29.187Z,61.29
2022-12-29T12:48:40.363Z,63.00
2022-12-29T12:51:12.911Z,63.01
2022-12-29T12:53:58.604Z,62.78
2022-12-29T12:56:24.966Z,62.50
2022-12-29T12:59:07.234Z,59.13
2022-12-29T13:01:54.486Z,59.23
2022-12-29T13:04:37.664Z,57.67
2022-12-29T13:07:28.262Z,61.44
2022-12-29T13:10:17.943Z,58.88
2022-12-29T13:13:03.090Z,59.37
2022-12-29T13:15:41.721Z,59.06
2022-12-29T13:18:19.902Z,59.42
2022-12-29T13:21:14.652Z,58.85
2022-12-29T13:24:21.201Z,59.91
2022-12-29T13:26:55.727Z,59.32
2022-12-29T13:29:37.003Z,60.47
2022-12-29T13:32:35.959Z,58.01
2022-12-29T13:35:08.301Z,59.22
2022-12-29T13:37:44.844Z,58.77
2022-12-29T13:40:16.955Z,57.54
2022-12-29T13:42:44.432Z,58.52
2022-12-29T13:45:16.973Z,58.55
2022-12-29T13:47:49.895Z,57.11
2022-12-29T13:50:19.974Z,57.90
2022-12-29T13:53:28.347Z,57.00
2022-12-29T13:56:16.035Z,55.75
2022-12-29T13:58:45.150Z,56.16
2022-12-29T14:01:14.707Z,57.67
2022-12-29T14:03:51.971Z,55.76
2022-12-29T14:06:26.286Z,56.17
2022-12-29T14:09:04.697Z,58.44
2022-12-29T14:11:40.218Z,55.81
2022-12-29T14:14:21.106Z,55.64
2022-12-29T14:16:48.058Z,55.71
2022-12-29T14:19:24.176Z,55.49
2022-12-29T14:22:03.187Z,56.52
2022-12-29T14:24:32.418Z,58.31
2022-12-29T14:26:58.871Z,56.97
2022-12-29T14:29:25.263Z,55.20
2022-12-29T14:31:53.699Z,57.05
2022-12-29T14:34:23.009Z,54.79
2022-12-29T14:37:02.465Z,55.72
2022-12-29T14:39:43.483Z,55.54
2022-12-29T14:42:09.827Z,55.37
2022-12-29T14:44:53.311Z,55.54
2022-12-29T14:47:50.575Z,55.63
2022-12-29T14:50:20.628Z,56.23
2022-12-29T14:53:00.091Z,54.79
2022-12-29T14:55:44.479Z,55.22
2022-12-29T14:58:22.015Z,53.44
2022-12-29T15:00:49.001Z,54.06
2022-12-29T15:03:22.321Z,54.70
2022-12-29T15:05:56.799Z,55.50
2022-12-29T15:08:33.076Z,54.15
2022-12-29T15:11:05.637Z,54.45
2022-12-29T15:13:38.320Z,54.50
2022-12-29T15:16:05.586Z,53.29
2022-12-29T15:18:34.117Z,54.90
2022-12-29T15:21:06.312Z,53.52
2022-12-29T15:23:35.389Z,55.21
2022-12-29T15:26:06.142Z,55.12
2022-12-29T15:28:42.732Z,53.45
2022-12-29T15:31:16.699Z,54.54
2022-12-29T15:33:48.175Z,53.59
2022-12-29T15:36:19.857Z,55.28
2022-12-29T15:38:47.452Z,54.69
2022-12-29T15:41:21.955Z,54.86
2022-12-29T15:43:58.169Z,53.92
2022-12-29T15:46:24.929Z,54.80
2022-12-29T15:48:51.492Z,54.43
2022-12-29T15:51:20.693Z,53.55
2022-12-29T15:53:52.042Z,53.06
2022-12-29T15:56:19.233Z,55.25
2022-12-29T15:58:51.755Z,54.15
2022-12-29T16:01:24.637Z,54.84
2022-12-29T16:03:53.068Z,54.51
2022-12-29T16:06:30.403Z,53.78
2022-12-29T16:09:03.459Z,55.00
2022-12-29T16:11:37.981Z,54.45
2022-12-29T16:14:10.844Z,54.10
2022-12-29T16:16:40.644Z,55.92
2022-12-29T16:19:33.628Z,55.90
2022-12-29T16:22:03.342Z,54.48
2022-12-29T16:24:33.918Z,57.79
2022-12-29T16:27:09.249Z,60.04
2022-12-29T16:29:36.309Z,60.04
2022-12-29T16:32:06.329Z,60.34
2022-12-29T16:34:43.885Z,59.73
2022-12-29T16:37:33.403Z,62.37
2022-12-29T16:40:18.436Z,61.91
2022-12-29T16:42:51.014Z,62.26
2022-12-29T16:45:21.501Z,62.31
2022-12-29T16:48:09.658Z,60.96
2022-12-29T16:50:38.765Z,62.66
2022-12-29T16:53:08.067Z,62.49
2022-12-29T16:55:34.557Z,61.49
2022-12-29T16:58:01.370Z,61.16
2022-12-29T17:00:33.338Z,61.01
2022-12-29T17:03:01.654Z,60.63
2022-12-29T17:05:28.409Z,61.92
2022-12-29T17:07:55.880Z,62.58
2022-12-29T17:10:42.259Z,62.03
2022-12-29T17:13:09.139Z,63.43
2022-12-29T17:15:35.762Z,61.39
2022-12-29T17:18:02.305Z,61.22
2022-12-29T17:20:30.710Z,61.27
2022-12-29T17:22:58.830Z,62.33
2022-12-29T17:25:37.303Z,61.20
2022-12-29T17:28:33.389Z,64.05
2022-12-29T17:31:02.978Z,61.02
2022-12-29T17:33:35.469Z,59.61
2022-12-29T17:36:01.933Z,60.77
2022-12-29T17:38:35.866Z,63.01
2022-12-29T17:41:02.360Z,63.72
2022-12-29T17:43:34.771Z,60.61
2022-12-29T17:46:06.528Z,60.91
2022-12-29T17:48:33.912Z,60.36
2022-12-29T17:51:00.568Z,59.20
2022-12-29T17:53:29.868Z,59.05
2022-12-29T17:55:56.573Z,59.93
2022-12-29T17:58:25.686Z,59.26
2022-12-29T18:00:55.785Z,58.74
2022-12-29T18:03:42.582Z,60.31
2022-12-29T18:06:12.161Z,60.33
2022-12-29T18:08:40.396Z,62.23
2022-12-29T18:11:21.102Z,60.84
2022-12-29T18:13:47.529Z,61.72
2022-12-29T18:16:14.712Z,63.74
2022-12-29T18:18:41.301Z,64.00
2022-12-29T18:21:15.930Z,62.90
2022-12-29T18:23:42.424Z,61.85
2022-12-29T18:26:11.843Z,62.28
2022-12-29T18:28:38.292Z,63.02
2022-12-29T18:31:17.005Z,61.22
2022-12-29T18:33:43.505Z,60.06
2022-12-29T18:36:12.203Z,61.63
2022-12-29T18:38:38.668Z,60.87
2022-12-29T18:41:05.213Z,59.44
2022-12-29T18:43:31.630Z,59.78
2022-12-29T18:45:58.138Z,59.43
2022-12-29T18:48:24.523Z,59.46
2022-12-29T18:50:51.839Z,58.36
2022-12-29T18:53:21.215Z,57.39
2022-12-29T18:55:47.714Z,57.88
2022-12-29T18:58:14.568Z,58.31
2022-12-29T19:00:41.344Z,58.45
2022-12-29T19:03:07.921Z,59.91
2022-12-29T19:05:39.415Z,58.64
2022-12-29T19:08:07.148Z,59.11
2022-12-29T19:10:34.261Z,58.42
2022-12-29T19:13:01.115Z,58.65
2022-12-29T19:15:35.947Z,58.81
2022-12-29T19:20:52.164Z,58.38
2022-12-29T19:23:21.146Z,57.24
2022-12-29T19:25:49.210Z,58.60
2022-12-29T19:28:21.552Z,58.97
2022-12-29T19:30:52.137Z,58.42
2022-12-29T19:33:23.396Z,57.65
2022-12-29T19:35:50.798Z,57.54
2022-12-29T19:38:17.830Z,61.15
2022-12-29T19:40:48.127Z,57.11
2022-12-29T19:43:15.227Z,57.34
2022-12-29T19:45:43.621Z,56.91
2022-12-29T19:48:15.787Z,55.70
2022-12-29T19:50:43.322Z,55.79
2022-12-29T19:53:09.832Z,57.02
2022-12-29T19:55:36.266Z,54.64
2022-12-29T19:58:02.796Z,55.86
2022-12-29T20:00:29.304Z,55.25
2022-12-29T20:02:55.888Z,55.66
2022-12-29T20:05:22.659Z,58.73
2022-12-29T20:07:49.094Z,56.24
2022-12-29T20:10:15.585Z,56.20
2022-12-29T20:12:42.159Z,56.10
2022-12-29T20:15:11.020Z,56.38
2022-12-29T20:20:24.008Z,55.43
2022-12-29T20:22:50.546Z,56.37
2022-12-29T20:28:03.696Z,55.87
2022-12-29T20:30:30.135Z,56.96
2022-12-29T20:32:56.569Z,56.93
2022-12-29T20:35:23.101Z,57.09
2022-12-29T20:37:49.737Z,57.72
2022-12-29T20:40:16.182Z,57.31
2022-12-29T20:42:59.592Z,56.81
2022-12-29T20:45:26.305Z,58.07
2022-12-29T20:47:52.945Z,58.64
2022-12-29T20:50:19.416Z,57.77
2022-12-29T20:52:46.719Z,58.22
2022-12-29T20:55:13.207Z,56.92
2022-12-29T20:58:21.525Z,60.08
2022-12-29T21:00:26.257Z,61.92
2022-12-29T21:02:53.053Z,63.06
2022-12-29T21:05:24.456Z,63.06
2022-12-29T21:07:51.962Z,63.12
2022-12-29T21:10:18.588Z,62.09
2022-12-29T21:12:45.127Z,62.77
2022-12-29T21:15:11.732Z,63.68
2022-12-29T21:17:38.132Z,62.77
2022-12-29T21:20:04.846Z,63.22
2022-12-29T21:22:31.236Z,63.67
2022-12-29T21:24:57.665Z,62.78
2022-12-29T21:27:24.161Z,63.04
2022-12-29T21:29:50.655Z,62.42
2022-12-29T21:32:17.087Z,60.37
2022-12-29T21:34:43.492Z,61.29
2022-12-29T21:37:09.931Z,61.92
2022-12-29T21:39:36.369Z,63.74
2022-12-29T21:42:02.786Z,62.03
2022-12-29T21:44:48.044Z,60.80
2022-12-29T21:47:14.486Z,63.19
2022-12-29T21:49:40.905Z,63.51
2022-12-29T21:52:07.355Z,63.06
2022-12-29T21:54:52.407Z,62.63
2022-12-29T21:57:37.740Z,61.95
2022-12-29T22:00:27.687Z,62.48
2022-12-29T22:03:22.039Z,64.73
2022-12-29T22:06:08.992Z,66.07
2022-12-29T22:08:53.653Z,64.71
2022-12-29T22:11:38.523Z,63.42
2022-12-29T22:14:06.244Z,61.96
2022-12-29T22:16:34.075Z,63.34
2022-12-29T22:19:00.630Z,62.38
2022-12-29T22:21:27.113Z,63.22
2022-12-29T22:23:53.583Z,64.29
2022-12-29T22:26:20.131Z,65.85
2022-12-29T22:28:47.865Z,65.43
2022-12-29T22:31:27.072Z,65.50
2022-12-29T22:33:57.539Z,65.92
2022-12-29T22:36:25.151Z,65.18
2022-12-29T22:38:52.117Z,64.18
2022-12-29T22:41:19.347Z,64.71
2022-12-29T22:43:45.798Z,64.17
2022-12-29T22:46:12.475Z,65.36
2022-12-29T22:48:38.969Z,62.89
2022-12-29T22:51:05.874Z,64.99
2022-12-29T22:53:32.791Z,64.03
2022-12-29T22:56:08.363Z,61.04
2022-12-29T22:58:34.956Z,63.13
2022-12-29T23:01:01.571Z,61.55
2022-12-29T23:03:28.487Z,60.53
2022-12-29T23:05:56.793Z,59.36
2022-12-29T23:08:23.225Z,61.56
2022-12-29T23:10:49.747Z,62.24
2022-12-29T23:13:16.401Z,61.39
2022-12-29T23:15:42.859Z,60.63
2022-12-29T23:18:09.329Z,60.41
2022-12-29T23:20:35.888Z,59.68
2022-12-29T23:23:02.307Z,60.42
2022-12-29T23:25:31.823Z,60.69
2022-12-29T23:27:58.225Z,60.53
2022-12-29T23:30:24.635Z,60.57
2022-12-29T23:32:51.028Z,59.52
2022-12-29T23:35:17.514Z,60.43
2022-12-29T23:37:43.940Z,59.74
2022-12-29T23:40:11.028Z,59.67
2022-12-29T23:42:37.648Z,58.00
2022-12-29T23:45:05.447Z,58.49
2022-12-29T23:47:32.139Z,58.41
2022-12-29T23:49:58.524Z,60.02
2022-12-29T23:52:25.061Z,59.01
2022-12-29T23:54:51.536Z,59.01
2022-12-29T23:57:17.956Z,59.15
2022-12-29T23:59:44.361Z,60.34
